Weather at Hohenfels Army Airfield

Public forecast

Using degrees Celsius for public forecast. Weather courtesy of forecast.io.

Current aviation weather report (METAR) for Hohenfels Army Airfield

2024/05/30 00:10 (retrieved 14 minutes ago)

ETIH 300010Z AUTO 00000KT 9999 SCT013 BKN041 OVC065 14/11 A2982 RMK AO2 SLP096

Closest aviation forecast (TAF) to Hohenfels Army Airfield

Forecast is more than 6 hours old.

Closest forecast is Grafenwöhr Army Air Field, 29.2 nm (54.1 km) N.

2024/05/29 18:20 (retrieved 6 hours ago)

TAF ETIC 291800Z 2918/3024 21006KT 9999 BKN080 OVC120 QNH2987INS BECMG 2919/2920 21006KT 9000 -SHRA BR BKN012 BKN030 QNH2982INS TEMPO 2922/3004 18003KT 2400 RA BR OVC004 BECMG 3006/3007 18006KT 5000 -DZ BR OVC005 QNH2969INS BECMG 3008/3009 17006KT 8000 BR OVC010 QNH2967INS TEMPO 3009/3010 9999 BECMG 3011/3012 24009KT 9000 -SHRA BKN025 BKN060 QNH2966INS TEMPO 3012/3014 24012G18KT VCTS BKN020CB BECMG 3018/3019 27009KT 9999 NSW BKN030 BKN080 QNH2966INS BECMG 3020/3021 27009KT 9000 -SHRA BKN025 BKN060 QNH2966INS BECMG 3023/3024 27009KT 9000 BR BKN025 BKN060 QNH2966INS TX17/3017Z TN11/3004Z LAST NO AMDS AFT 2921 NEXT 3006